Time;durP1;ratioP1;P1;durP2;ratioP2;P2;SDS_P1;SDS_P2;PMS_P1;PMS_P2;Temp;Humidity;BMP_temperature;BMP_pressure;BME280_temperature;BME280_humidity;BME280_pressure;Samples;Min_cycle;Max_cycle;Signal;HPM_P1;HPM_P2
2022/06/04 00:00:19;;;;;;;3.00;2.00;;;;;;;-142.64;100.00;58178.75;5074008;28;20053;-62
2022/06/04 00:02:46;;;;;;;4.82;2.05;;;;;;;-142.64;100.00;58178.75;5073195;28;20032;-63
2022/06/04 00:05:13;;;;;;;3.80;2.30;;;;;;;-142.64;100.00;58178.75;5074274;28;20045;-63
2022/06/04 00:07:38;;;;;;;4.18;2.03;;;;;;;-142.64;100.00;58178.75;5072979;28;20037;-63
2022/06/04 00:15:39;;;;;;;2.17;1.92;;;;;;;-142.64;100.00;58178.75;5063227;28;20058;-64
2022/06/04 00:18:04;;;;;;;5.53;2.55;;;;;;;-142.64;100.00;58178.75;5074510;28;20036;-63
2022/06/04 00:20:29;;;;;;;2.30;2.20;;;;;;;-142.64;100.00;58178.75;5073705;28;20115;-63
2022/06/04 00:22:59;;;;;;;2.40;2.13;;;;;;;-142.64;100.00;58178.75;5073194;28;20109;-63
2022/06/04 00:25:25;;;;;;;4.07;2.35;;;;;;;-142.64;100.00;58178.75;5073283;28;20537;-63
2022/06/04 00:27:51;;;;;;;2.90;2.42;;;;;;;-142.64;100.00;58178.75;5074624;28;20025;-62
2022/06/04 00:30:16;;;;;;;3.85;2.95;;;;;;;-142.64;100.00;58178.75;5073337;28;20047;-63
2022/06/04 00:32:42;;;;;;;4.22;3.00;;;;;;;-142.64;100.00;58178.75;5072944;28;20137;-62
2022/06/04 00:35:08;;;;;;;5.03;2.95;;;;;;;-142.64;100.00;58178.75;5073049;28;20040;-63
2022/06/04 00:37:34;;;;;;;4.47;2.83;;;;;;;-142.64;100.00;58178.75;5074209;28;20054;-63
2022/06/04 00:40:00;;;;;;;4.85;3.22;;;;;;;-142.64;100.00;58178.75;5074211;28;20036;-63
2022/06/04 00:42:26;;;;;;;4.63;2.65;;;;;;;-142.64;100.00;58178.75;5056383;28;20395;-62
2022/06/04 00:45:29;;;;;;;4.97;2.58;;;;;;;-142.64;100.00;58178.75;5074261;28;20036;-64
2022/06/04 00:47:54;;;;;;;6.30;3.20;;;;;;;-142.64;100.00;58178.75;5073975;28;20566;-61
2022/06/04 00:50:20;;;;;;;4.22;2.85;;;;;;;-142.64;100.00;58178.75;5074319;28;20033;-62
2022/06/04 00:52:47;;;;;;;5.25;3.20;;;;;;;-142.64;100.00;58178.75;5072766;28;20040;-62
2022/06/04 00:55:13;;;;;;;3.35;2.83;;;;;;;-142.64;100.00;58178.75;5072776;28;20069;-63
2022/06/04 00:57:44;;;;;;;3.65;2.60;;;;;;;-142.64;100.00;58178.75;5072791;28;20040;-63
2022/06/04 01:00:29;;;;;;;3.72;2.55;;;;;;;-142.64;100.00;58178.75;5073987;28;20031;-61
2022/06/04 01:03:06;;;;;;;4.15;2.60;;;;;;;-142.64;100.00;58178.75;5072835;28;20039;-62
2022/06/04 01:05:41;;;;;;;6.82;3.20;;;;;;;-142.64;100.00;58178.75;5073729;28;20129;-61
2022/06/04 01:08:21;;;;;;;3.30;3.00;;;;;;;-142.64;100.00;58178.75;5072384;28;20033;-62
2022/06/04 01:11:05;;;;;;;7.50;3.00;;;;;;;-142.64;100.00;58178.75;5073682;28;20380;-62
2022/06/04 01:13:34;;;;;;;4.75;3.30;;;;;;;-142.64;100.00;58178.75;5073675;28;20459;-62
2022/06/04 01:16:45;;;;;;;6.78;3.63;;;;;;;-142.64;100.00;58178.75;5072382;28;20028;-61
2022/06/04 01:19:13;;;;;;;3.38;3.08;;;;;;;-142.64;100.00;58178.75;5073285;28;20028;-62
2022/06/04 01:21:50;;;;;;;5.50;3.47;;;;;;;-142.64;100.00;58178.75;5072699;28;20107;-62
2022/06/04 01:24:27;;;;;;;6.90;3.63;;;;;;;-142.64;100.00;58178.75;5073338;28;20028;-62
2022/06/04 01:27:07;;;;;;;5.13;4.00;;;;;;;-142.64;100.00;58178.75;5073401;28;20028;-62
2022/06/04 01:29:47;;;;;;;4.28;3.20;;;;;;;-142.64;100.00;58178.75;5073233;28;20024;-61
2022/06/04 01:32:22;;;;;;;6.80;3.40;;;;;;;-142.64;100.00;58178.75;5072220;28;20111;-62
2022/06/04 01:34:56;;;;;;;5.03;3.60;;;;;;;-142.64;100.00;58178.75;5073386;28;20116;-62
2022/06/04 01:37:34;;;;;;;6.07;3.90;;;;;;;-142.64;100.00;58178.75;5073077;28;20103;-62
2022/06/04 01:42:47;;;;;;;5.40;3.63;;;;;;;-142.64;100.00;58178.75;5073047;28;20051;-61
2022/06/04 01:45:15;;;;;;;4.30;3.90;;;;;;;-142.64;100.00;58178.75;5055201;28;20028;-62
2022/06/04 01:47:42;;;;;;;6.75;4.13;;;;;;;-142.64;100.00;58178.75;5071864;28;20143;-62
2022/06/04 01:50:11;;;;;;;5.20;4.18;;;;;;;-142.64;100.00;58178.75;5071664;28;20086;-62
2022/06/04 01:52:39;;;;;;;5.13;4.05;;;;;;;-142.64;100.00;58178.75;5071409;28;20028;-62
2022/06/04 01:55:09;;;;;;;6.28;4.47;;;;;;;-142.64;100.00;58178.75;5071568;28;20089;-62
2022/06/04 01:57:42;;;;;;;8.43;4.10;;;;;;;-142.64;100.00;58178.75;5072699;28;20028;-63
2022/06/04 02:00:16;;;;;;;5.75;3.83;;;;;;;-142.64;100.00;58178.75;5071558;28;20075;-62
2022/06/04 02:02:47;;;;;;;4.90;4.00;;;;;;;-142.64;100.00;58178.75;5072568;28;20028;-62
2022/06/04 02:05:18;;;;;;;5.25;4.18;;;;;;;-142.64;100.00;58178.75;5072481;28;20057;-63
2022/06/04 02:07:46;;;;;;;6.03;3.95;;;;;;;-142.64;100.00;58178.75;5072671;28;20076;-62
2022/06/04 02:10:48;;;;;;;5.82;4.30;;;;;;;-142.64;100.00;58178.75;5072642;28;20138;-63
2022/06/04 02:13:14;;;;;;;7.95;4.32;;;;;;;-142.64;100.00;58178.75;5070054;28;20483;-63
2022/06/04 02:16:01;;;;;;;5.05;4.00;;;;;;;-142.64;100.00;58178.75;5072490;28;20082;-63
2022/06/04 02:18:27;;;;;;;6.10;3.70;;;;;;;-142.64;100.00;58178.75;5072456;28;20424;-63
2022/06/04 02:20:52;;;;;;;5.90;4.15;;;;;;;-142.64;100.00;58178.75;5072538;28;20115;-63
2022/06/04 02:23:18;;;;;;;7.05;4.72;;;;;;;-142.64;100.00;58178.75;5072435;28;20548;-62
2022/06/04 02:25:43;;;;;;;7.45;4.15;;;;;;;-142.64;100.00;58178.75;5072282;28;20040;-61
2022/06/04 02:28:10;;;;;;;7.90;4.28;;;;;;;-142.64;100.00;58178.75;5054472;28;20059;-62
2022/06/04 02:31:04;;;;;;;8.68;4.82;;;;;;;-142.64;100.00;58178.75;5072329;28;20079;-63
2022/06/04 02:34:18;;;;;;;5.85;4.75;;;;;;;-142.64;100.00;58178.75;5068723;28;20044;-63
2022/06/04 02:37:01;;;;;;;5.95;5.03;;;;;;;-142.64;100.00;58178.75;5070072;28;20360;-62
2022/06/04 02:39:34;;;;;;;7.95;5.50;;;;;;;-142.64;100.00;58178.75;5071974;28;20037;-63
2022/06/04 02:42:10;;;;;;;8.32;4.95;;;;;;;-142.64;100.00;58178.75;5071037;28;20032;-63
2022/06/04 02:44:45;;;;;;;5.82;5.10;;;;;;;-142.64;100.00;58178.75;5054277;28;20067;-63
2022/06/04 02:47:14;;;;;;;9.70;5.43;;;;;;;-142.64;100.00;58178.75;5070710;28;20042;-64
2022/06/04 02:49:47;;;;;;;9.80;5.85;;;;;;;-142.64;100.00;58178.75;5071232;28;20031;-63
2022/06/04 02:52:14;;;;;;;6.72;5.70;;;;;;;-142.64;100.00;58178.75;5071154;28;20021;-63
2022/06/04 02:54:44;;;;;;;7.57;6.35;;;;;;;-142.64;100.00;58178.75;5070731;28;20508;-63
2022/06/04 02:57:11;;;;;;;6.80;6.18;;;;;;;-142.64;100.00;58178.75;5072164;28;20028;-62
2022/06/04 02:59:37;;;;;;;10.95;6.28;;;;;;;-142.64;100.00;58178.75;5054316;28;20391;-63
2022/06/04 03:02:03;;;;;;;11.88;6.13;;;;;;;-142.64;100.00;58178.75;5071882;28;20037;-63
2022/06/04 03:04:39;;;;;;;8.43;6.75;;;;;;;-142.64;100.00;58178.75;5071987;28;20079;-63
2022/06/04 03:07:05;;;;;;;11.23;6.72;;;;;;;-142.64;100.00;58178.75;5072029;28;20028;-63
2022/06/04 03:09:31;;;;;;;9.15;5.72;;;;;;;-142.64;100.00;58178.75;5071884;28;20029;-62
2022/06/04 03:11:56;;;;;;;7.38;5.80;;;;;;;-142.64;100.00;58178.75;5071862;28;20024;-63
2022/06/04 03:14:21;;;;;;;8.93;5.97;;;;;;;-142.64;100.00;58178.75;5071806;28;20415;-64
2022/06/04 03:16:48;;;;;;;8.55;5.53;;;;;;;-142.64;100.00;58178.75;5070754;28;20475;-63
2022/06/04 03:19:13;;;;;;;8.43;5.88;;;;;;;-142.64;100.00;58178.75;5070751;28;20036;-63
2022/06/04 03:21:41;;;;;;;8.65;6.47;;;;;;;-142.64;100.00;58178.75;5071837;28;20102;-63
2022/06/04 03:24:08;;;;;;;10.48;6.07;;;;;;;-142.64;100.00;58178.75;5071853;28;20086;-63
2022/06/04 03:26:34;;;;;;;9.18;6.45;;;;;;;-142.64;100.00;58178.75;5054007;28;20120;-62
2022/06/04 03:28:59;;;;;;;9.02;7.05;;;;;;;-142.64;100.00;58178.75;5070829;28;20136;-61
2022/06/04 03:31:28;;;;;;;10.43;6.65;;;;;;;-142.64;100.00;58178.75;5071705;28;20547;-64
2022/06/04 03:33:54;;;;;;;9.27;6.07;;;;;;;-142.64;100.00;58178.75;5070630;28;20029;-65
2022/06/04 03:36:21;;;;;;;8.55;6.60;;;;;;;-142.64;100.00;58178.75;5071694;28;20029;-65
2022/06/04 03:38:47;;;;;;;11.73;7.40;;;;;;;-142.64;100.00;58178.75;5070418;28;20060;-65
2022/06/04 03:41:12;;;;;;;13.02;7.38;;;;;;;-142.64;100.00;58178.75;5071557;28;20064;-65
2022/06/04 03:43:37;;;;;;;11.05;6.97;;;;;;;-142.64;100.00;58178.75;5073263;28;20037;-65
2022/06/04 03:46:03;;;;;;;9.90;7.60;;;;;;;-142.64;100.00;58178.75;5075355;28;20155;-65
2022/06/04 03:48:28;;;;;;;13.82;7.30;;;;;;;-142.64;100.00;58178.75;5075276;28;20035;-65
2022/06/04 03:50:53;;;;;;;6.72;6.07;;;;;;;-142.64;100.00;58178.75;5073974;28;20400;-64
2022/06/04 03:53:19;;;;;;;7.70;5.78;;;;;;;-142.64;100.00;58178.75;5073749;28;20083;-63
2022/06/04 03:55:44;;;;;;;6.28;5.63;;;;;;;-142.64;100.00;58178.75;5075084;28;20039;-64
2022/06/04 03:58:09;;;;;;;10.50;6.07;;;;;;;-142.64;100.00;58178.75;5074879;28;20462;-64
2022/06/04 04:00:39;;;;;;;7.10;5.15;;;;;;;-142.64;100.00;58178.75;5074862;28;20036;-64
2022/06/04 04:03:10;;;;;;;11.02;5.63;;;;;;;-142.64;100.00;58178.75;5074600;28;20036;-65
2022/06/04 04:05:38;;;;;;;10.48;5.80;;;;;;;-142.64;100.00;58178.75;5075186;28;20637;-65
2022/06/04 04:08:06;;;;;;;13.52;5.75;;;;;;;-142.64;100.00;58178.75;5073364;28;20029;-64
2022/06/04 04:10:32;;;;;;;6.07;5.00;;;;;;;-142.64;100.00;58178.75;5073659;28;20040;-64
2022/06/04 04:12:58;;;;;;;9.40;5.78;;;;;;;-142.64;100.00;58178.75;5074371;28;20028;-64
2022/06/04 04:15:24;;;;;;;9.43;5.40;;;;;;;-142.64;100.00;58178.75;5074633;28;20464;-64
2022/06/04 04:17:49;;;;;;;9.07;5.82;;;;;;;-142.64;100.00;58178.75;5074661;28;20086;-64
2022/06/04 04:20:18;;;;;;;8.32;5.53;;;;;;;-142.64;100.00;58178.75;5074637;28;20032;-64
2022/06/04 04:22:43;;;;;;;8.57;6.30;;;;;;;-142.64;100.00;58178.75;5074483;28;20051;-65
2022/06/04 04:25:09;;;;;;;8.60;5.97;;;;;;;-142.64;100.00;58178.75;5074592;28;20032;-64
2022/06/04 04:27:36;;;;;;;10.23;6.85;;;;;;;-142.64;100.00;58178.75;5074404;28;20122;-64
2022/06/04 04:30:06;;;;;;;11.30;6.45;;;;;;;-142.64;100.00;58178.75;5040323;28;20124;-64
2022/06/04 04:32:32;;;;;;;11.80;6.88;;;;;;;-142.64;100.00;58178.75;5074288;28;20535;-65
2022/06/04 04:34:58;;;;;;;9.40;6.60;;;;;;;-142.64;100.00;58178.75;5072950;28;20189;-64
2022/06/04 04:37:23;;;;;;;8.52;6.65;;;;;;;-142.64;100.00;58178.75;5074611;28;20118;-64
2022/06/04 04:39:49;;;;;;;12.07;7.40;;;;;;;-142.64;100.00;58178.75;5074317;28;20084;-65
2022/06/04 04:42:14;;;;;;;10.13;6.90;;;;;;;-142.64;100.00;58178.75;5074405;28;20055;-65
2022/06/04 04:44:40;;;;;;;10.40;7.20;;;;;;;-142.64;100.00;58178.75;5074402;28;20064;-65
2022/06/04 04:47:05;;;;;;;14.77;7.25;;;;;;;-142.64;100.00;58178.75;5074151;28;20055;-64
2022/06/04 04:49:30;;;;;;;10.65;7.15;;;;;;;-142.64;100.00;58178.75;5072801;28;20036;-64
2022/06/04 04:51:56;;;;;;;10.18;7.25;;;;;;;-142.64;100.00;58178.75;5072928;28;20059;-64
2022/06/04 04:54:21;;;;;;;10.55;7.05;;;;;;;-142.64;100.00;58178.75;5073549;28;20028;-64
2022/06/04 04:56:46;;;;;;;10.18;6.97;;;;;;;-142.64;100.00;58178.75;5073791;28;20032;-63
2022/06/04 04:59:12;;;;;;;8.57;7.10;;;;;;;-142.64;100.00;58178.75;5074099;28;20032;-64
2022/06/04 05:01:37;;;;;;;13.30;7.03;;;;;;;-142.64;100.00;58178.75;5073855;28;20498;-64
2022/06/04 05:04:03;;;;;;;10.40;6.47;;;;;;;-142.64;100.00;58178.75;5073566;28;20442;-65
2022/06/04 05:06:29;;;;;;;9.50;6.57;;;;;;;-142.64;100.00;58178.75;5072393;28;20032;-65
2022/06/04 05:08:54;;;;;;;15.35;6.93;;;;;;;-142.64;100.00;58178.75;5073819;28;20040;-65
2022/06/04 05:11:27;;;;;;;12.23;6.45;;;;;;;-142.64;100.00;58178.75;5073738;28;20032;-65
2022/06/04 05:13:52;;;;;;;6.97;5.90;;;;;;;-142.64;100.00;58178.75;5073801;28;20028;-63
2022/06/04 05:16:20;;;;;;;12.52;6.60;;;;;;;-142.64;100.00;58178.75;5072215;28;20068;-63
2022/06/04 05:18:51;;;;;;;8.18;6.07;;;;;;;-142.64;100.00;58178.75;5073476;28;20028;-63
2022/06/04 05:21:22;;;;;;;13.02;6.13;;;;;;;-142.64;100.00;58178.75;5071182;28;20231;-64
2022/06/04 05:23:48;;;;;;;8.35;5.45;;;;;;;-142.64;100.00;58178.75;5071851;28;20139;-64
2022/06/04 05:26:14;;;;;;;10.95;5.63;;;;;;;-142.64;100.00;58178.75;5070738;28;20106;-64
2022/06/04 05:28:40;;;;;;;9.05;5.47;;;;;;;-142.64;100.00;58178.75;5071845;28;20587;-63
2022/06/04 05:31:05;;;;;;;7.40;5.22;;;;;;;-142.64;100.00;58178.75;5070322;28;20123;-64
2022/06/04 05:33:31;;;;;;;7.95;5.28;;;;;;;-142.64;100.00;58178.75;5071967;28;20104;-64
2022/06/04 05:35:56;;;;;;;9.43;5.38;;;;;;;-142.64;100.00;58178.75;5072270;28;20089;-64
2022/06/04 05:38:23;;;;;;;6.82;4.93;;;;;;;-142.64;100.00;58178.75;5070303;28;20042;-63
2022/06/04 05:40:57;;;;;;;8.77;4.47;;;;;;;-142.64;100.00;58178.75;5071564;28;20033;-63
2022/06/04 05:43:23;;;;;;;11.70;5.28;;;;;;;-142.64;100.00;58178.75;5071737;28;20071;-65
2022/06/04 05:45:56;;;;;;;6.38;4.40;;;;;;;-142.64;100.00;58178.75;5071285;28;20067;-65
2022/06/04 05:48:22;;;;;;;9.05;4.93;;;;;;;-142.64;100.00;58178.75;5070924;28;20036;-65
2022/06/04 05:50:51;;;;;;;11.68;4.78;;;;;;;-142.64;100.00;58178.75;5072332;28;20036;-64
2022/06/04 05:53:16;;;;;;;7.47;4.75;;;;;;;-142.64;100.00;58178.75;5070883;28;20071;-64
2022/06/04 05:55:41;;;;;;;10.75;4.80;;;;;;;-142.64;100.00;58178.75;5069717;28;20441;-63
2022/06/04 05:58:07;;;;;;;9.60;4.72;;;;;;;-142.64;100.00;58178.75;5071576;28;20025;-64
2022/06/04 06:00:33;;;;;;;6.93;3.95;;;;;;;-142.64;100.00;58178.75;5070208;28;20036;-63
2022/06/04 06:02:58;;;;;;;6.18;4.03;;;;;;;-142.64;100.00;58178.75;5071068;28;20064;-64
2022/06/04 06:05:23;;;;;;;7.88;4.40;;;;;;;-142.64;100.00;58178.75;5071699;28;20091;-64
2022/06/04 06:07:49;;;;;;;7.35;4.00;;;;;;;-142.64;100.00;58178.75;5072041;28;20032;-64
2022/06/04 06:10:15;;;;;;;9.32;3.88;;;;;;;-142.64;100.00;58178.75;5070839;28;20039;-63
2022/06/04 06:12:41;;;;;;;7.18;4.28;;;;;;;-142.64;100.00;58178.75;5070685;28;20028;-63
2022/06/04 06:15:10;;;;;;;6.65;4.28;;;;;;;-142.64;100.00;58178.75;5070230;28;20033;-64
2022/06/04 06:17:44;;;;;;;5.97;4.53;;;;;;;-142.64;100.00;58178.75;5070833;28;20498;-61
2022/06/04 06:20:10;;;;;;;9.13;4.32;;;;;;;-142.64;100.00;58178.75;5055115;28;20487;-63
2022/06/04 06:22:36;;;;;;;6.97;4.47;;;;;;;-142.64;100.00;58178.75;5072091;28;20150;-65
2022/06/04 06:25:06;;;;;;;8.50;5.00;;;;;;;-142.64;100.00;58178.75;5069804;28;20039;-64
2022/06/04 06:27:41;;;;;;;8.43;4.95;;;;;;;-142.64;100.00;58178.75;5069263;28;20036;-63
2022/06/04 06:30:09;;;;;;;5.78;4.15;;;;;;;-142.64;100.00;58178.75;5071180;28;20043;-62
2022/06/04 06:32:36;;;;;;;5.95;4.25;;;;;;;-142.64;100.00;58178.75;5052972;28;20163;-63
2022/06/04 06:35:03;;;;;;;8.38;4.40;;;;;;;-142.64;100.00;58178.75;5068755;28;20040;-64
2022/06/04 06:37:29;;;;;;;11.13;4.47;;;;;;;-142.64;100.00;58178.75;5070414;28;20029;-63
2022/06/04 06:39:55;;;;;;;8.07;4.47;;;;;;;-142.64;100.00;58178.75;5071359;28;20036;-64
2022/06/04 06:42:22;;;;;;;9.57;4.22;;;;;;;-142.64;100.00;58178.75;5071076;28;20039;-63
2022/06/04 06:44:49;;;;;;;7.72;4.60;;;;;;;-142.64;100.00;58178.75;5070470;28;20097;-65
2022/06/04 06:47:15;;;;;;;6.63;4.43;;;;;;;-142.64;100.00;58178.75;5068818;28;20029;-63
2022/06/04 06:49:41;;;;;;;9.70;5.07;;;;;;;-142.64;100.00;58178.75;5071044;28;20055;-63
2022/06/04 06:52:10;;;;;;;6.72;4.50;;;;;;;-142.64;100.00;58178.75;5071354;28;20043;-63
2022/06/04 06:54:36;;;;;;;7.50;4.30;;;;;;;-142.64;100.00;58178.75;5070863;28;20438;-62
2022/06/04 06:57:04;;;;;;;6.28;4.40;;;;;;;-142.64;100.00;58178.75;5071268;28;20040;-63
2022/06/04 06:59:29;;;;;;;6.20;4.72;;;;;;;-142.64;100.00;58178.75;5069883;28;20052;-63
2022/06/04 07:01:56;;;;;;;8.60;4.70;;;;;;;-142.64;100.00;58178.75;5071011;28;20036;-63
2022/06/04 07:04:22;;;;;;;7.68;4.22;;;;;;;-142.64;100.00;58178.75;5070269;28;20505;-63
2022/06/04 07:06:53;;;;;;;9.15;4.40;;;;;;;-142.64;100.00;58178.75;5035936;28;20024;-63
2022/06/04 07:09:19;;;;;;;;;;;;;;;-142.64;100.00;58178.75;5060872;28;20048;-63
2022/06/04 07:11:45;;;;;;;8.80;4.18;;;;;;;-142.64;100.00;58178.75;5065014;28;20406;-63
2022/06/04 07:14:12;;;;;;;6.00;4.45;;;;;;;-142.64;100.00;58178.75;5044708;28;20060;-63
2022/06/04 07:16:37;;;;;;;7.03;4.10;;;;;;;-142.64;100.00;58178.75;5056573;28;20034;-63
2022/06/04 07:19:04;;;;;;;8.32;4.30;;;;;;;-142.64;100.00;58178.75;5052788;28;20044;-63
2022/06/04 07:21:30;;;;;;;11.10;5.25;;;;;;;-142.64;100.00;58178.75;5053072;28;20499;-63
2022/06/04 07:23:56;;;;;;;6.53;3.95;;;;;;;-142.64;100.00;58178.75;5052841;28;20107;-64
2022/06/04 07:26:22;;;;;;;9.77;4.00;;;;;;;-142.64;100.00;58178.75;5054594;28;20516;-64
2022/06/04 07:28:47;;;;;;;7.20;4.05;;;;;;;-142.64;100.00;58178.75;5035528;28;20115;-64
2022/06/04 07:31:14;;;;;;;5.30;3.80;;;;;;;-142.64;100.00;58178.75;5045426;28;20504;-61
2022/06/04 07:33:44;;;;;;;10.15;3.70;;;;;;;-142.64;100.00;58178.75;5053987;28;20403;-63
2022/06/04 07:36:19;;;;;;;4.33;3.60;;;;;;;-142.64;100.00;58178.75;5041289;28;20564;-63
2022/06/04 07:38:45;;;;;;;6.25;4.05;;;;;;;-142.64;100.00;58178.75;5054117;28;20286;-62
2022/06/04 07:41:19;;;;;;;4.95;3.33;;;;;;;-142.64;100.00;58178.75;5053236;28;20116;-64
2022/06/04 07:43:45;;;;;;;7.57;3.72;;;;;;;-142.64;100.00;58178.75;5055147;28;20071;-63
2022/06/04 07:46:10;;;;;;;6.90;4.00;;;;;;;-142.64;100.00;58178.75;5054657;28;20436;-64
2022/06/04 07:48:35;;;;;;;6.05;4.13;;;;;;;-142.64;100.00;58178.75;5038756;28;20029;-62
2022/06/04 07:51:02;;;;;;;4.47;3.85;;;;;;;-142.64;100.00;58178.75;5034471;28;20435;-62
2022/06/04 07:53:27;;;;;;;7.10;3.50;;;;;;;-142.64;100.00;58178.75;5049722;28;20369;-63
2022/06/04 07:55:53;;;;;;;7.40;4.07;;;;;;;-142.64;100.00;58178.75;5034565;28;20044;-62
2022/06/04 07:58:20;;;;;;;5.10;3.95;;;;;;;-142.64;100.00;58178.75;5041192;28;20044;-63
2022/06/04 08:00:54;;;;;;;8.77;4.38;;;;;;;-142.64;100.00;58178.75;5051151;28;20090;-63
2022/06/04 08:03:19;;;;;;;9.25;3.58;;;;;;;-142.64;100.00;58178.75;5052839;28;20044;-63
2022/06/04 08:05:44;;;;;;;4.70;3.47;;;;;;;-142.64;100.00;58178.75;5054565;28;20408;-61
2022/06/04 08:08:10;;;;;;;5.65;4.00;;;;;;;-142.64;100.00;58178.75;5051674;28;20508;-62
2022/06/04 08:10:35;;;;;;;6.75;4.40;;;;;;;-142.64;100.00;58178.75;5052783;28;20029;-62
2022/06/04 08:13:01;;;;;;;10.75;4.90;;;;;;;-142.64;100.00;58178.75;5052035;28;20128;-62
2022/06/04 08:15:26;;;;;;;5.90;4.22;;;;;;;-142.64;100.00;58178.75;5053686;28;20029;-61
2022/06/04 08:17:52;;;;;;;6.32;4.20;;;;;;;-142.64;100.00;58178.75;5053369;28;20033;-62
2022/06/04 08:20:18;;;;;;;5.03;3.92;;;;;;;-142.64;100.00;58178.75;5054128;28;20119;-63
2022/06/04 08:22:43;;;;;;;8.32;4.72;;;;;;;-142.64;100.00;58178.75;5054090;28;20037;-63
2022/06/04 08:25:09;;;;;;;7.07;4.25;;;;;;;-142.64;100.00;58178.75;5053625;28;20044;-63
2022/06/04 08:27:35;;;;;;;9.45;4.97;;;;;;;-142.64;100.00;58178.75;5052828;28;20164;-64
2022/06/04 08:30:00;;;;;;;8.38;5.00;;;;;;;-142.64;100.00;58178.75;5052597;28;20041;-63
2022/06/04 08:32:26;;;;;;;5.68;3.95;;;;;;;-142.64;100.00;58178.75;5052700;28;20037;-62
2022/06/04 08:34:51;;;;;;;7.13;5.00;;;;;;;-142.64;100.00;58178.75;5054054;28;20086;-63
2022/06/04 08:37:16;;;;;;;5.63;4.30;;;;;;;-142.64;100.00;58178.75;5052830;28;20033;-63
2022/06/04 08:39:42;;;;;;;4.72;4.10;;;;;;;-142.64;100.00;58178.75;5052807;28;20063;-62
2022/06/04 08:42:17;;;;;;;6.97;4.47;;;;;;;-142.64;100.00;58178.75;5053205;28;20041;-63
2022/06/04 08:44:46;;;;;;;8.45;4.35;;;;;;;-142.64;100.00;58178.75;5048727;28;20029;-62
2022/06/04 08:47:12;;;;;;;6.38;5.13;;;;;;;-142.64;100.00;58178.75;5050705;28;20033;-64
2022/06/04 08:49:42;;;;;;;6.18;4.90;;;;;;;-142.64;100.00;58178.75;5053493;28;20110;-63
2022/06/04 08:52:13;;;;;;;7.63;4.50;;;;;;;-142.64;100.00;58178.75;5052103;28;20025;-62
2022/06/04 08:57:36;;;;;;;7.32;4.65;;;;;;;-142.64;100.00;58178.75;5052624;28;20098;-63
2022/06/04 09:00:04;;;;;;;7.05;4.45;;;;;;;-142.64;100.00;58178.75;5052559;28;20395;-63
2022/06/04 09:02:55;;;;;;;7.05;5.47;;;;;;;-142.64;100.00;58178.75;5052194;28;20068;-62
2022/06/04 09:05:26;;;;;;;5.72;4.80;;;;;;;-142.64;100.00;58178.75;5052060;28;20132;-61
2022/06/04 09:07:56;;;;;;;5.30;4.80;;;;;;;-142.64;100.00;58178.75;5053160;28;20059;-63
2022/06/04 09:10:25;;;;;;;8.30;5.07;;;;;;;-142.64;100.00;58178.75;5052139;28;20458;-60
2022/06/04 09:13:18;;;;;;;11.60;4.68;;;;;;;-142.64;100.00;58178.75;5052210;28;20029;-62
2022/06/04 09:15:49;;;;;;;8.60;4.70;;;;;;;-142.64;100.00;58178.75;5053561;28;20108;-62
2022/06/04 09:18:31;;;;;;;7.72;4.78;;;;;;;-142.64;100.00;58178.75;5052201;28;20064;-61
2022/06/04 09:20:59;;;;;;;7.90;5.35;;;;;;;-142.64;100.00;58178.75;5051751;28;20025;-62
2022/06/04 09:23:33;;;;;;;5.72;4.65;;;;;;;-142.64;100.00;58178.75;5050841;28;20040;-61
2022/06/04 09:26:16;;;;;;;6.47;4.53;;;;;;;-142.64;100.00;58178.75;5053525;28;20033;-62
2022/06/04 09:29:09;;;;;;;6.60;4.70;;;;;;;-142.64;100.00;58178.75;5052998;28;20064;-62
2022/06/04 09:31:40;;;;;;;8.05;4.35;;;;;;;-142.64;100.00;58178.75;5052926;28;20057;-62
2022/06/04 09:34:19;;;;;;;6.32;4.07;;;;;;;-142.64;100.00;58178.75;5053417;28;20548;-61
2022/06/04 09:36:46;;;;;;;7.18;4.85;;;;;;;-142.64;100.00;58178.75;5051874;28;20159;-62
2022/06/04 09:39:19;;;;;;;5.35;4.25;;;;;;;-142.64;100.00;58178.75;5051452;28;20029;-62
2022/06/04 09:41:54;;;;;;;5.45;3.63;;;;;;;-142.64;100.00;58178.75;5052337;28;20040;-61
2022/06/04 09:44:19;;;;;;;5.75;4.47;;;;;;;-142.64;100.00;58178.75;5051588;28;20025;-60
2022/06/04 09:46:47;;;;;;;5.20;4.25;;;;;;;-142.64;100.00;58178.75;5052922;28;20036;-61
2022/06/04 09:49:28;;;;;;;6.78;4.35;;;;;;;-142.64;100.00;58178.75;5051331;28;20559;-60
2022/06/04 09:51:54;;;;;;;6.47;4.55;;;;;;;-142.64;100.00;58178.75;5066614;28;20534;-59
2022/06/04 09:54:31;;;;;;;8.20;4.45;;;;;;;-142.64;100.00;58178.75;5049912;28;20464;-60
2022/06/04 09:57:02;;;;;;;6.97;4.07;;;;;;;-142.64;100.00;58178.75;5051686;28;20079;-60
2022/06/04 09:59:29;;;;;;;;;;;;;;;-142.64;100.00;58178.75;5051552;28;20037;-60
2022/06/04 10:01:57;;;;;;;5.35;3.55;;;;;;;-142.64;100.00;58178.75;5052313;28;20003;-61
2022/06/04 10:04:24;;;;;;;6.38;4.22;;;;;;;-142.64;100.00;58178.75;5051985;28;20049;-60
2022/06/04 10:06:50;;;;;;;5.13;4.40;;;;;;;-142.64;100.00;58178.75;5051586;28;20164;-60
2022/06/04 10:12:03;;;;;;;6.25;4.10;;;;;;;-142.64;100.00;58178.75;5052689;28;20495;-60
2022/06/04 10:14:39;;;;;;;5.35;4.03;;;;;;;-142.64;100.00;58178.75;5051052;28;20033;-60
2022/06/04 10:17:07;;;;;;;5.25;4.55;;;;;;;-142.64;100.00;58178.75;5052733;28;20032;-60
2022/06/04 10:19:33;;;;;;;6.35;4.22;;;;;;;-142.64;100.00;58178.75;5049564;28;20555;-61
2022/06/04 10:22:25;;;;;;;5.03;4.30;;;;;;;-142.64;100.00;58178.75;5059713;28;20033;-60
2022/06/04 10:24:53;;;;;;;4.97;4.47;;;;;;;-142.64;100.00;58178.75;5042772;28;20033;-60
2022/06/04 10:27:52;;;;;;;6.53;4.97;;;;;;;-142.64;100.00;58178.75;5063229;28;20453;-61
2022/06/04 10:30:52;;;;;;;6.35;4.60;;;;;;;-142.64;100.00;58178.75;5053603;28;20052;-60
2022/06/04 10:33:23;;;;;;;6.15;4.38;;;;;;;-142.64;100.00;58178.75;5061383;28;20614;-60
2022/06/04 10:36:02;;;;;;;4.93;4.30;;;;;;;-142.64;100.00;58178.75;5065148;28;20387;-60
2022/06/04 10:38:43;;;;;;;6.05;5.28;;;;;;;-142.64;100.00;58178.75;5040585;28;20028;-60
2022/06/04 10:41:26;;;;;;;7.03;4.88;;;;;;;-142.64;100.00;58178.75;5050861;28;20040;-60
2022/06/04 10:44:07;;;;;;;7.10;4.95;;;;;;;-142.64;100.00;58178.75;5052042;28;20032;-60
2022/06/04 10:46:44;;;;;;;6.22;4.88;;;;;;;-142.64;100.00;58178.75;5052298;28;20032;-61
2022/06/04 10:49:09;;;;;;;7.68;4.55;;;;;;;-142.64;100.00;58178.75;5051496;28;20040;-60
2022/06/04 10:51:44;;;;;;;5.50;5.00;;;;;;;-142.64;100.00;58178.75;5052000;28;20155;-59
2022/06/04 10:54:35;;;;;;;4.88;4.38;;;;;;;-142.64;100.00;58178.75;5054540;28;20032;-60
2022/06/04 10:57:32;;;;;;;4.72;4.07;;;;;;;-142.64;100.00;58178.75;5053129;28;20040;-59
2022/06/04 11:00:13;;;;;;;6.88;4.80;;;;;;;-142.64;100.00;58178.75;5054855;28;20072;-60
2022/06/04 11:02:54;;;;;;;5.53;4.90;;;;;;;-142.64;100.00;58178.75;5054764;28;20115;-60
2022/06/04 11:05:40;;;;;;;7.55;5.07;;;;;;;-142.64;100.00;58178.75;5055499;28;20534;-60
2022/06/04 11:08:20;;;;;;;6.38;5.55;;;;;;;-142.64;100.00;58178.75;5055790;28;20120;-60
2022/06/04 11:10:50;;;;;;;6.10;4.70;;;;;;;-142.64;100.00;58178.75;5054650;28;20057;-60
2022/06/04 11:13:25;;;;;;;6.97;5.22;;;;;;;-142.64;100.00;58178.75;5055941;28;20021;-59
2022/06/04 11:16:15;;;;;;;6.05;5.32;;;;;;;-142.64;100.00;58178.75;5055750;28;20051;-60
2022/06/04 11:18:46;;;;;;;8.27;5.85;;;;;;;-142.64;100.00;58178.75;5054843;28;20043;-61
2022/06/04 11:21:20;;;;;;;6.97;5.90;;;;;;;-142.64;100.00;58178.75;5054500;28;20028;-60
2022/06/04 11:24:04;;;;;;;5.85;5.25;;;;;;;-142.64;100.00;58178.75;5054510;28;20040;-62
2022/06/04 11:26:44;;;;;;;7.93;5.28;;;;;;;-142.64;100.00;58178.75;5055888;28;20037;-61
2022/06/04 11:29:11;;;;;;;6.03;5.43;;;;;;;-142.64;100.00;58178.75;5055724;28;20028;-62
2022/06/04 11:31:49;;;;;;;6.32;5.63;;;;;;;-142.64;100.00;58178.75;5054317;28;20029;-61
2022/06/04 11:34:52;;;;;;;8.68;6.03;;;;;;;-142.64;100.00;58178.75;5055537;28;20064;-61
2022/06/04 11:37:22;;;;;;;7.45;6.25;;;;;;;-142.64;100.00;58178.75;5055494;28;20029;-61